AirNav   Pilot Hours Calculator
 
 1340 users online  

38N Smyrna Airport
Smyrna, Delaware, USA

GOING TO SMYRNA?


FAA INFORMATION EFFECTIVE 05 DECEMBER 2019

Location

FAA Identifier: 38N
Lat/Long: 39-18-13.2000N 075-35-01.7000W
39-18.220000N 075-35.028333W
39.3036667,-75.5838056
(estimated)
Elevation: 18 ft. / 5 m (estimated)
Variation: 11W (1985)
From city: 1 mile E of SMYRNA, DE
Time zone: UTC -5 (UTC -4 during Daylight Saving Time)
Zip code: 19977

Airport Operations

Airport use: Open to the public
Control tower: no
ARTCC: WASHINGTON CENTER
FSS: MILLVILLE FLIGHT SERVICE STATION
NOTAMs facility: MIV (NOTAM-D service available)
Attendance: IREG
Wind indicator: yes
Segmented circle: yes
Lights: ACTVT LIRL RWY 10/28 DUSK-2400 - CTAF.
Beacon: white-green (lighted land airport)

Airport Communications

CTAF/UNICOM: 122.8
WX AWOS-3 at 33N (5 nm S): 120.125 (302-735-9754)
WX AWOS-3 at EVY (15 nm NW): 132.325 (302-378-2063)

Nearby radio navigation aids

VOR radial/distance  VOR name  Freq  Var
ENOr333/5.3SMYRNA VORTAC111.4009W
DQOr187/22.5DUPONT VORTAC114.0010W
OODr223/23.8WOODSTOWN VORTAC112.8010W
VCNr254/31.8CEDAR LAKE VOR/DME115.2010W
ATRr339/34.3WATERLOO VOR/DME112.6009W
MXEr183/37.1MODENA VORTAC113.2009W
SIEr298/38.5SEA ISLE VORTAC114.8009W

 
NDB name  Hdg/Dist  Freq  Var  ID
RAINBOW263/21.936311WRNB .-. -. -...

Airport Services

Fuel available: 100LL MOGAS
Parking: hangars
Airframe service: NONE
Powerplant service: NONE
Bottled oxygen: NONE
Bulk oxygen: NONE

Runway Information

Runway 10/28

Dimensions: 2600 x 125 ft. / 792 x 38 m
Surface: turf, in good condition
ROLLING SURFACE.
Runway edge lights: low intensity
RUNWAY 10  RUNWAY 28
Latitude: 39-18.208833N39-18.230000N
Longitude: 075-35.303167W075-34.752500W
Traffic pattern: leftleft
Runway end identifier lights: yesyes
Obstructions: 55 ft. trees, 1020 ft. from runway, 18:1 slope to clear78 ft. trees, 1257 ft. from runway, 16:1 slope to clear

Airport Ownership and Management from official FAA records

Ownership: Privately-owned
Owner: BARBARA JONES
305 WOODLAND BEACH RD
SMYRNA, DE 19977
Phone 302-653-8314
Manager: ROBERT JONES
305 WOODLAND BEACH RD
SMYRNA, DE 19977
Phone 302-653-8314

Airport Operational Statistics

Aircraft based on the field: 10
Single engine airplanes: 8
Gliders airplanes: 2
    
Aircraft operations: avg 44/week *
87% local general aviation
13% transient general aviation
* for 12-month period ending 16 April 2018

Additional Remarks

MIGRATORY WATER FOWL ON & INVOF ARPT OCT-FEB.
FOR CD CTC WASHINGTON ARTCC AT 703-771-3587.

Instrument Procedures

There are no published instrument procedures at 38N.

Some nearby airports with instrument procedures:

33N - Delaware Airpark (5 nm S)
KDOV - Dover Air Force Base (12 nm SE)
KEVY - Summit Airport (15 nm NW)
58M - Claremont Airport (21 nm NW)
KILG - New Castle Airport (23 nm N)
 
Loc | Ops | Rwys | IFR | FBO | Links
Com | Nav | Svcs | Stats | Notes
Area around 38N (Smyrna Airport)
 
Road maps at: MapQuest Bing Google
 
Aerial photo
WARNING: Photo may not be current or correct
Aerial photo of 38N (Smyrna Airport)
Photo courtesy of FlyinPhilsPhotos.com
Taken in the Spring of 2010

Do you have a better or more recent aerial photo of Smyrna Airport that you would like to share? If so, please send us your photo.

 
Sectional chart

 
Airport distance calculator
Flying to Smyrna Airport? Find the distance to fly.

From to 38N

Sunrise and sunset
Times for 05-Dec-2019
 Local
(UTC-5)
 Zulu
(UTC)
Morning civil twilight06:3811:38
Sunrise07:0812:08
Sunset16:3821:38
Evening civil twilight17:0822:08

Current date and time
Zulu (UTC)  05-Dec-2019 23:32:44
Local (UTC-5)  05-Dec-2019 18:32:44
 
METAR
KDOV 
12nm SE 
052156Z AUTO 29008KT 10SM BKN060 06/M06 A3002 RMK AO2 SLP169 T00571056 $
KILG 
22nm N 
052251Z 30016G27KT 10SM SCT060 06/M06 A3004 RMK AO2 PK WND 29027/2249 SLP173 T00561056
KMIV 
24nm E 
052254Z AUTO 29010KT 10SM BKN060 06/M06 A3003 RMK AO2 SLP170 T00561056
KAPG 
24nm NW 
052147Z VRB06KT 9SM SCT050 06/M06 A3003 RMK SLP173
TAF
KDOV 
12nm SE 
051913Z 0519/0622 29010G20KT 9999 BKN060 BKN100 QNH2990INS BECMG 0521/0522 29015KT 9999 SCT080 QNH2997INS BECMG 0606/0607 28009KT 9999 FEW050 QNH3020INS BECMG 0611/0612 21009KT 9999 FEW070 QNH3020INS BECMG 0614/0615 21010G20KT 9999 SCT070 BKN100 QNH3005INS TX08/0519Z TN00/0612Z
NOTAMs
Click for the latest NOTAMs
NOTAMs are issued by the DoD/FAA and will open in a separate window not controlled by AirNav.

 

 
 

FBO, Fuel Providers, and Aircraft Ground Support

  
 Business Name 
 
 Contact 
 
 Services / Description 
 
Fuel Prices
 
Comments
  
Smyrna Airport 302-653-8314
[email]
Aviation fuel, Aircraft parking (ramp or tiedown), Public telephone, Pilots lounge / snooze room, Restrooms

More info about Smyrna Airport
independent
100LL
AS $5.35 
 Updated 09-Sep-2019
 
   write
AS=Assisted/Self Service
Update Fuel Prices
 

Would you like to see your business listed on this page?

 If your business provides an interesting product or service to pilots, flight crews, aircraft, or users of the Smyrna Airport, you should consider listing it here.  To start the listing process, click on the button below
 
Add a business
 

Other Pages about Smyrna Airport

Update a link
 
Copyright © AirNav, LLC. All rights reserved. Privacy Policy  Contact